sensor_id;sensor_type;location;lat;lon;timestamp;temperature;humidity
20534;DHT22;12929;56.822;26.056;2023-07-24T00:01:23;13.60;99.90
20534;DHT22;12929;56.822;26.056;2023-07-24T00:03:51;13.70;99.90
20534;DHT22;12929;56.822;26.056;2023-07-24T00:06:18;13.70;99.90
20534;DHT22;12929;56.822;26.056;2023-07-24T00:08:46;13.70;99.90
20534;DHT22;12929;56.822;26.056;2023-07-24T00:11:13;13.70;99.90
20534;DHT22;12929;56.822;26.056;2023-07-24T00:13:41;13.60;99.90
20534;DHT22;12929;56.822;26.056;2023-07-24T00:16:09;13.60;99.90
20534;DHT22;12929;56.822;26.056;2023-07-24T00:18:36;13.60;99.90
20534;DHT22;12929;56.822;26.056;2023-07-24T00:21:04;13.60;99.90
20534;DHT22;12929;56.822;26.056;2023-07-24T00:23:32;13.60;99.90
20534;DHT22;12929;56.822;26.056;2023-07-24T00:25:59;13.70;99.90
20534;DHT22;12929;56.822;26.056;2023-07-24T00:28:27;13.70;99.90
20534;DHT22;12929;56.822;26.056;2023-07-24T00:30:55;13.70;99.90
20534;DHT22;12929;56.822;26.056;2023-07-24T00:33:23;13.70;99.90
20534;DHT22;12929;56.822;26.056;2023-07-24T00:35:54;13.70;99.90
20534;DHT22;12929;56.822;26.056;2023-07-24T00:38:22;13.80;99.90
20534;DHT22;12929;56.822;26.056;2023-07-24T00:40:50;13.80;99.90
20534;DHT22;12929;56.822;26.056;2023-07-24T00:43:17;13.80;99.90
20534;DHT22;12929;56.822;26.056;2023-07-24T00:45:46;13.90;99.90
20534;DHT22;12929;56.822;26.056;2023-07-24T00:48:15;13.90;99.90
20534;DHT22;12929;56.822;26.056;2023-07-24T00:50:43;13.80;99.90
20534;DHT22;12929;56.822;26.056;2023-07-24T00:53:12;13.90;99.90
20534;DHT22;12929;56.822;26.056;2023-07-24T00:55:40;13.90;99.90
20534;DHT22;12929;56.822;26.056;2023-07-24T00:58:11;13.80;99.90
20534;DHT22;12929;56.822;26.056;2023-07-24T01:00:39;13.80;99.90
20534;DHT22;12929;56.822;26.056;2023-07-24T01:03:08;13.70;99.90
20534;DHT22;12929;56.822;26.056;2023-07-24T01:05:36;13.70;99.90
20534;DHT22;12929;56.822;26.056;2023-07-24T01:08:05;13.80;99.90
20534;DHT22;12929;56.822;26.056;2023-07-24T01:10:33;13.80;99.90
20534;DHT22;12929;56.822;26.056;2023-07-24T01:13:18;13.80;99.90
20534;DHT22;12929;56.822;26.056;2023-07-24T01:15:58;13.90;99.90
20534;DHT22;12929;56.822;26.056;2023-07-24T01:18:30;13.80;99.90
20534;DHT22;12929;56.822;26.056;2023-07-24T01:20:58;13.80;99.90
20534;DHT22;12929;56.822;26.056;2023-07-24T01:23:45;13.80;99.90
20534;DHT22;12929;56.822;26.056;2023-07-24T01:26:18;13.90;99.90
20534;DHT22;12929;56.822;26.056;2023-07-24T01:28:46;13.90;99.90
20534;DHT22;12929;56.822;26.056;2023-07-24T01:31:14;13.90;99.90
20534;DHT22;12929;56.822;26.056;2023-07-24T01:33:44;13.90;99.90
20534;DHT22;12929;56.822;26.056;2023-07-24T01:36:18;13.90;99.90
20534;DHT22;12929;56.822;26.056;2023-07-24T01:38:48;13.90;99.90
20534;DHT22;12929;56.822;26.056;2023-07-24T01:41:17;13.90;99.90
20534;DHT22;12929;56.822;26.056;2023-07-24T01:43:45;13.90;99.90
20534;DHT22;12929;56.822;26.056;2023-07-24T01:46:13;13.80;99.90
20534;DHT22;12929;56.822;26.056;2023-07-24T01:48:42;13.80;99.90
20534;DHT22;12929;56.822;26.056;2023-07-24T01:51:10;13.80;99.90
20534;DHT22;12929;56.822;26.056;2023-07-24T01:53:38;13.70;99.90
20534;DHT22;12929;56.822;26.056;2023-07-24T01:56:05;13.80;99.90
20534;DHT22;12929;56.822;26.056;2023-07-24T01:58:33;13.70;99.90
20534;DHT22;12929;56.822;26.056;2023-07-24T02:01:01;13.70;99.90
20534;DHT22;12929;56.822;26.056;2023-07-24T02:03:28;13.70;99.90
20534;DHT22;12929;56.822;26.056;2023-07-24T02:05:56;13.80;99.90
20534;DHT22;12929;56.822;26.056;2023-07-24T02:08:24;13.80;99.90
20534;DHT22;12929;56.822;26.056;2023-07-24T02:10:52;13.80;99.90
20534;DHT22;12929;56.822;26.056;2023-07-24T02:13:20;13.70;99.90
20534;DHT22;12929;56.822;26.056;2023-07-24T02:15:49;13.70;99.90
20534;DHT22;12929;56.822;26.056;2023-07-24T02:18:17;13.80;99.90
20534;DHT22;12929;56.822;26.056;2023-07-24T02:20:49;13.80;99.90
20534;DHT22;12929;56.822;26.056;2023-07-24T02:23:18;13.80;99.90
20534;DHT22;12929;56.822;26.056;2023-07-24T02:25:45;13.70;99.90
20534;DHT22;12929;56.822;26.056;2023-07-24T02:28:13;13.70;99.90
20534;DHT22;12929;56.822;26.056;2023-07-24T02:30:41;13.70;99.90
20534;DHT22;12929;56.822;26.056;2023-07-24T02:33:08;13.70;99.90
20534;DHT22;12929;56.822;26.056;2023-07-24T02:35:40;13.70;99.90
20534;DHT22;12929;56.822;26.056;2023-07-24T02:38:08;13.80;99.90
20534;DHT22;12929;56.822;26.056;2023-07-24T02:40:41;13.70;99.90
20534;DHT22;12929;56.822;26.056;2023-07-24T02:43:09;13.80;99.90
20534;DHT22;12929;56.822;26.056;2023-07-24T02:45:38;13.80;99.90
20534;DHT22;12929;56.822;26.056;2023-07-24T02:48:06;13.80;99.90
20534;DHT22;12929;56.822;26.056;2023-07-24T02:50:33;13.80;99.90
20534;DHT22;12929;56.822;26.056;2023-07-24T02:53:01;13.90;99.90
20534;DHT22;12929;56.822;26.056;2023-07-24T02:55:29;13.90;99.90
20534;DHT22;12929;56.822;26.056;2023-07-24T02:57:57;13.90;99.90
20534;DHT22;12929;56.822;26.056;2023-07-24T03:00:24;13.90;99.90
20534;DHT22;12929;56.822;26.056;2023-07-24T03:02:53;14.00;99.90
20534;DHT22;12929;56.822;26.056;2023-07-24T03:05:20;14.00;99.90
20534;DHT22;12929;56.822;26.056;2023-07-24T03:07:48;13.90;99.90
20534;DHT22;12929;56.822;26.056;2023-07-24T03:10:16;13.80;99.90
20534;DHT22;12929;56.822;26.056;2023-07-24T03:12:44;13.90;99.90
20534;DHT22;12929;56.822;26.056;2023-07-24T03:15:12;13.80;99.90
20534;DHT22;12929;56.822;26.056;2023-07-24T03:17:39;13.90;99.90
20534;DHT22;12929;56.822;26.056;2023-07-24T03:20:09;13.80;99.90
20534;DHT22;12929;56.822;26.056;2023-07-24T03:22:37;13.90;99.90
20534;DHT22;12929;56.822;26.056;2023-07-24T03:25:06;13.90;99.90
20534;DHT22;12929;56.822;26.056;2023-07-24T03:27:34;14.00;99.90
20534;DHT22;12929;56.822;26.056;2023-07-24T03:30:02;14.00;99.90
20534;DHT22;12929;56.822;26.056;2023-07-24T03:32:30;14.00;99.90
20534;DHT22;12929;56.822;26.056;2023-07-24T03:34:59;13.90;99.90
20534;DHT22;12929;56.822;26.056;2023-07-24T03:37:26;13.90;99.90
20534;DHT22;12929;56.822;26.056;2023-07-24T03:39:54;13.90;99.90
20534;DHT22;12929;56.822;26.056;2023-07-24T03:42:26;13.90;99.90
20534;DHT22;12929;56.822;26.056;2023-07-24T03:44:55;13.90;99.90
20534;DHT22;12929;56.822;26.056;2023-07-24T03:47:23;13.90;99.90
20534;DHT22;12929;56.822;26.056;2023-07-24T03:49:51;13.90;99.90
20534;DHT22;12929;56.822;26.056;2023-07-24T03:52:19;13.90;99.90
20534;DHT22;12929;56.822;26.056;2023-07-24T03:54:47;13.90;99.90
20534;DHT22;12929;56.822;26.056;2023-07-24T03:57:15;13.90;99.90
20534;DHT22;12929;56.822;26.056;2023-07-24T03:59:43;13.80;99.90
20534;DHT22;12929;56.822;26.056;2023-07-24T04:02:11;13.80;99.90
20534;DHT22;12929;56.822;26.056;2023-07-24T04:04:38;13.90;99.90
20534;DHT22;12929;56.822;26.056;2023-07-24T04:07:06;13.90;99.90
20534;DHT22;12929;56.822;26.056;2023-07-24T04:09:34;14.00;99.90
20534;DHT22;12929;56.822;26.056;2023-07-24T04:12:02;13.80;99.90
20534;DHT22;12929;56.822;26.056;2023-07-24T04:14:30;13.80;99.90
20534;DHT22;12929;56.822;26.056;2023-07-24T04:16:57;13.90;99.90
20534;DHT22;12929;56.822;26.056;2023-07-24T04:19:26;13.90;99.90
20534;DHT22;12929;56.822;26.056;2023-07-24T04:21:54;14.00;99.90
20534;DHT22;12929;56.822;26.056;2023-07-24T04:24:22;14.00;99.90
20534;DHT22;12929;56.822;26.056;2023-07-24T04:26:49;14.00;99.90
20534;DHT22;12929;56.822;26.056;2023-07-24T04:29:17;14.10;99.90
20534;DHT22;12929;56.822;26.056;2023-07-24T04:31:45;14.10;99.90
20534;DHT22;12929;56.822;26.056;2023-07-24T04:34:13;14.10;99.90
20534;DHT22;12929;56.822;26.056;2023-07-24T04:36:40;14.10;99.90
20534;DHT22;12929;56.822;26.056;2023-07-24T04:39:08;14.10;99.90
20534;DHT22;12929;56.822;26.056;2023-07-24T04:41:36;14.10;99.90
20534;DHT22;12929;56.822;26.056;2023-07-24T04:44:04;14.20;99.90
20534;DHT22;12929;56.822;26.056;2023-07-24T04:46:33;14.20;99.90
20534;DHT22;12929;56.822;26.056;2023-07-24T04:49:01;14.20;99.90
20534;DHT22;12929;56.822;26.056;2023-07-24T04:51:29;14.20;99.90
20534;DHT22;12929;56.822;26.056;2023-07-24T04:53:58;14.20;99.90
20534;DHT22;12929;56.822;26.056;2023-07-24T04:56:26;14.20;99.90
20534;DHT22;12929;56.822;26.056;2023-07-24T04:58:54;14.20;99.90
20534;DHT22;12929;56.822;26.056;2023-07-24T05:01:22;14.30;99.90
20534;DHT22;12929;56.822;26.056;2023-07-24T05:03:49;14.30;99.90
20534;DHT22;12929;56.822;26.056;2023-07-24T05:06:17;14.20;99.90
20534;DHT22;12929;56.822;26.056;2023-07-24T05:08:45;14.20;99.90
20534;DHT22;12929;56.822;26.056;2023-07-24T05:11:12;14.30;99.90
20534;DHT22;12929;56.822;26.056;2023-07-24T05:13:40;14.30;99.90
20534;DHT22;12929;56.822;26.056;2023-07-24T05:16:08;14.30;99.90
20534;DHT22;12929;56.822;26.056;2023-07-24T05:18:36;14.30;99.90
20534;DHT22;12929;56.822;26.056;2023-07-24T05:21:06;14.30;99.90
20534;DHT22;12929;56.822;26.056;2023-07-24T05:23:34;14.30;99.90
20534;DHT22;12929;56.822;26.056;2023-07-24T05:26:03;14.40;99.90
20534;DHT22;12929;56.822;26.056;2023-07-24T05:28:32;14.40;99.90
20534;DHT22;12929;56.822;26.056;2023-07-24T05:31:03;14.40;99.90
20534;DHT22;12929;56.822;26.056;2023-07-24T05:33:32;14.50;99.90
20534;DHT22;12929;56.822;26.056;2023-07-24T05:36:01;14.50;99.90
20534;DHT22;12929;56.822;26.056;2023-07-24T05:38:29;14.50;99.90
20534;DHT22;12929;56.822;26.056;2023-07-24T05:41:01;14.50;99.90
20534;DHT22;12929;56.822;26.056;2023-07-24T05:43:30;14.40;99.90
20534;DHT22;12929;56.822;26.056;2023-07-24T05:45:59;14.40;99.90
20534;DHT22;12929;56.822;26.056;2023-07-24T05:48:27;14.40;99.90
20534;DHT22;12929;56.822;26.056;2023-07-24T05:50:54;14.40;99.90
20534;DHT22;12929;56.822;26.056;2023-07-24T05:53:22;14.40;99.90
20534;DHT22;12929;56.822;26.056;2023-07-24T05:56:00;14.50;99.90
20534;DHT22;12929;56.822;26.056;2023-07-24T05:58:29;14.50;99.90
20534;DHT22;12929;56.822;26.056;2023-07-24T06:00:56;14.50;99.90
20534;DHT22;12929;56.822;26.056;2023-07-24T06:03:24;14.60;99.90
20534;DHT22;12929;56.822;26.056;2023-07-24T06:05:53;14.60;99.90
20534;DHT22;12929;56.822;26.056;2023-07-24T06:08:22;14.60;99.90
20534;DHT22;12929;56.822;26.056;2023-07-24T06:10:50;14.70;99.90
20534;DHT22;12929;56.822;26.056;2023-07-24T06:13:19;14.60;99.90
20534;DHT22;12929;56.822;26.056;2023-07-24T06:15:48;14.70;99.90
20534;DHT22;12929;56.822;26.056;2023-07-24T06:18:16;14.70;99.90
20534;DHT22;12929;56.822;26.056;2023-07-24T06:20:44;14.60;99.90
20534;DHT22;12929;56.822;26.056;2023-07-24T06:23:12;14.70;99.90
20534;DHT22;12929;56.822;26.056;2023-07-24T06:25:39;14.60;99.90
20534;DHT22;12929;56.822;26.056;2023-07-24T06:28:07;14.70;99.90
20534;DHT22;12929;56.822;26.056;2023-07-24T06:30:34;14.70;99.90
20534;DHT22;12929;56.822;26.056;2023-07-24T06:33:02;14.70;99.90
20534;DHT22;12929;56.822;26.056;2023-07-24T06:35:30;14.70;99.90
20534;DHT22;12929;56.822;26.056;2023-07-24T06:37:58;14.80;99.90
20534;DHT22;12929;56.822;26.056;2023-07-24T06:40:26;14.90;99.90
20534;DHT22;12929;56.822;26.056;2023-07-24T06:42:54;15.00;99.90
20534;DHT22;12929;56.822;26.056;2023-07-24T06:45:21;15.10;99.90
20534;DHT22;12929;56.822;26.056;2023-07-24T06:47:49;15.20;99.90
20534;DHT22;12929;56.822;26.056;2023-07-24T06:50:17;15.20;99.90
20534;DHT22;12929;56.822;26.056;2023-07-24T06:52:45;15.20;99.90
20534;DHT22;12929;56.822;26.056;2023-07-24T06:55:12;15.10;99.90
20534;DHT22;12929;56.822;26.056;2023-07-24T06:57:40;15.10;99.90
20534;DHT22;12929;56.822;26.056;2023-07-24T07:00:08;15.10;99.90
20534;DHT22;12929;56.822;26.056;2023-07-24T07:02:39;15.10;99.90
20534;DHT22;12929;56.822;26.056;2023-07-24T07:05:07;15.20;99.90
20534;DHT22;12929;56.822;26.056;2023-07-24T07:07:35;15.30;99.90
20534;DHT22;12929;56.822;26.056;2023-07-24T07:10:03;15.30;99.90
20534;DHT22;12929;56.822;26.056;2023-07-24T07:12:32;15.20;99.90
20534;DHT22;12929;56.822;26.056;2023-07-24T07:15:00;15.20;99.90
20534;DHT22;12929;56.822;26.056;2023-07-24T07:17:27;15.30;99.90
20534;DHT22;12929;56.822;26.056;2023-07-24T07:19:55;15.30;99.90
20534;DHT22;12929;56.822;26.056;2023-07-24T07:22:24;15.30;99.90
20534;DHT22;12929;56.822;26.056;2023-07-24T07:24:53;15.30;99.90
20534;DHT22;12929;56.822;26.056;2023-07-24T07:27:20;15.30;99.90
20534;DHT22;12929;56.822;26.056;2023-07-24T07:29:48;15.20;99.90
20534;DHT22;12929;56.822;26.056;2023-07-24T07:32:15;15.20;99.90
20534;DHT22;12929;56.822;26.056;2023-07-24T07:34:44;15.30;99.90
20534;DHT22;12929;56.822;26.056;2023-07-24T07:37:12;15.30;99.90
20534;DHT22;12929;56.822;26.056;2023-07-24T07:39:40;15.30;99.90
20534;DHT22;12929;56.822;26.056;2023-07-24T07:42:10;15.30;99.90
20534;DHT22;12929;56.822;26.056;2023-07-24T07:44:46;15.40;99.90
20534;DHT22;12929;56.822;26.056;2023-07-24T07:47:14;15.40;99.90
20534;DHT22;12929;56.822;26.056;2023-07-24T07:49:42;15.50;99.90
20534;DHT22;12929;56.822;26.056;2023-07-24T07:52:10;15.50;99.90
20534;DHT22;12929;56.822;26.056;2023-07-24T07:54:38;15.40;99.90
20534;DHT22;12929;56.822;26.056;2023-07-24T07:57:05;15.50;99.90
20534;DHT22;12929;56.822;26.056;2023-07-24T07:59:33;15.50;99.90
20534;DHT22;12929;56.822;26.056;2023-07-24T08:02:03;15.50;99.90
20534;DHT22;12929;56.822;26.056;2023-07-24T08:04:32;15.50;99.90
20534;DHT22;12929;56.822;26.056;2023-07-24T08:07:01;15.50;99.90
20534;DHT22;12929;56.822;26.056;2023-07-24T08:09:29;15.50;99.90
20534;DHT22;12929;56.822;26.056;2023-07-24T08:11:57;15.50;99.90
20534;DHT22;12929;56.822;26.056;2023-07-24T08:14:25;15.60;99.90
20534;DHT22;12929;56.822;26.056;2023-07-24T08:16:52;15.70;99.90
20534;DHT22;12929;56.822;26.056;2023-07-24T08:19:20;15.70;99.90
20534;DHT22;12929;56.822;26.056;2023-07-24T08:21:48;15.80;99.90
20534;DHT22;12929;56.822;26.056;2023-07-24T08:24:16;15.70;99.90
20534;DHT22;12929;56.822;26.056;2023-07-24T08:26:43;15.70;99.90
20534;DHT22;12929;56.822;26.056;2023-07-24T08:29:12;15.70;99.90
20534;DHT22;12929;56.822;26.056;2023-07-24T08:31:39;15.50;99.90
20534;DHT22;12929;56.822;26.056;2023-07-24T08:34:07;15.60;99.90
20534;DHT22;12929;56.822;26.056;2023-07-24T08:36:35;15.60;99.90
20534;DHT22;12929;56.822;26.056;2023-07-24T08:39:04;15.70;99.90
20534;DHT22;12929;56.822;26.056;2023-07-24T08:41:32;15.70;99.90
20534;DHT22;12929;56.822;26.056;2023-07-24T08:44:02;15.80;99.90
20534;DHT22;12929;56.822;26.056;2023-07-24T08:46:30;15.90;99.90
20534;DHT22;12929;56.822;26.056;2023-07-24T08:48:58;16.00;99.90
20534;DHT22;12929;56.822;26.056;2023-07-24T08:51:26;16.40;99.90
20534;DHT22;12929;56.822;26.056;2023-07-24T08:53:54;16.30;99.90
20534;DHT22;12929;56.822;26.056;2023-07-24T08:56:22;16.20;99.90
20534;DHT22;12929;56.822;26.056;2023-07-24T08:58:49;16.20;99.90
20534;DHT22;12929;56.822;26.056;2023-07-24T09:01:18;16.10;99.90
20534;DHT22;12929;56.822;26.056;2023-07-24T09:03:45;16.00;99.90
20534;DHT22;12929;56.822;26.056;2023-07-24T09:06:13;16.00;99.90
20534;DHT22;12929;56.822;26.056;2023-07-24T09:08:42;15.90;99.90
20534;DHT22;12929;56.822;26.056;2023-07-24T09:11:14;16.00;99.90
20534;DHT22;12929;56.822;26.056;2023-07-24T09:13:42;16.00;99.90
20534;DHT22;12929;56.822;26.056;2023-07-24T09:16:24;16.20;99.90
20534;DHT22;12929;56.822;26.056;2023-07-24T09:18:53;16.20;99.90
20534;DHT22;12929;56.822;26.056;2023-07-24T09:21:29;16.30;99.90
20534;DHT22;12929;56.822;26.056;2023-07-24T09:23:57;16.30;99.90
20534;DHT22;12929;56.822;26.056;2023-07-24T09:26:25;16.30;99.90
20534;DHT22;12929;56.822;26.056;2023-07-24T09:28:54;16.30;99.90
20534;DHT22;12929;56.822;26.056;2023-07-24T09:31:33;16.30;99.90
20534;DHT22;12929;56.822;26.056;2023-07-24T09:34:01;16.30;99.90
20534;DHT22;12929;56.822;26.056;2023-07-24T09:36:37;16.20;99.90
20534;DHT22;12929;56.822;26.056;2023-07-24T09:39:06;16.20;99.90
20534;DHT22;12929;56.822;26.056;2023-07-24T09:41:38;16.20;99.90
20534;DHT22;12929;56.822;26.056;2023-07-24T09:44:07;16.20;99.90
20534;DHT22;12929;56.822;26.056;2023-07-24T09:46:36;16.10;99.90
20534;DHT22;12929;56.822;26.056;2023-07-24T09:49:13;16.10;99.90
20534;DHT22;12929;56.822;26.056;2023-07-24T09:51:43;16.10;99.90
20534;DHT22;12929;56.822;26.056;2023-07-24T09:54:25;16.10;99.90
20534;DHT22;12929;56.822;26.056;2023-07-24T09:56:56;16.20;99.90
20534;DHT22;12929;56.822;26.056;2023-07-24T09:59:41;16.40;99.90
20534;DHT22;12929;56.822;26.056;2023-07-24T10:02:11;16.60;99.90
20534;DHT22;12929;56.822;26.056;2023-07-24T10:04:40;16.90;99.90
20534;DHT22;12929;56.822;26.056;2023-07-24T10:07:09;17.10;99.90
20534;DHT22;12929;56.822;26.056;2023-07-24T10:09:37;17.30;99.90
20534;DHT22;12929;56.822;26.056;2023-07-24T10:12:06;17.50;99.90
20534;DHT22;12929;56.822;26.056;2023-07-24T10:14:34;17.30;99.90
20534;DHT22;12929;56.822;26.056;2023-07-24T10:17:03;17.20;99.90
20534;DHT22;12929;56.822;26.056;2023-07-24T10:19:41;17.30;99.90
20534;DHT22;12929;56.822;26.056;2023-07-24T10:22:18;17.40;99.90
20534;DHT22;12929;56.822;26.056;2023-07-24T10:24:47;17.50;99.90
20534;DHT22;12929;56.822;26.056;2023-07-24T10:27:15;17.40;99.90
20534;DHT22;12929;56.822;26.056;2023-07-24T10:29:42;17.40;99.90
20534;DHT22;12929;56.822;26.056;2023-07-24T10:32:17;17.30;99.90
20534;DHT22;12929;56.822;26.056;2023-07-24T10:34:55;17.30;99.90
20534;DHT22;12929;56.822;26.056;2023-07-24T10:37:32;17.30;99.90
20534;DHT22;12929;56.822;26.056;2023-07-24T10:40:00;17.40;99.90
20534;DHT22;12929;56.822;26.056;2023-07-24T10:42:28;17.50;99.90
20534;DHT22;12929;56.822;26.056;2023-07-24T10:45:07;17.40;99.90
20534;DHT22;12929;56.822;26.056;2023-07-24T10:47:35;17.40;99.90
20534;DHT22;12929;56.822;26.056;2023-07-24T10:50:03;17.40;99.90
20534;DHT22;12929;56.822;26.056;2023-07-24T10:52:31;17.40;99.90
20534;DHT22;12929;56.822;26.056;2023-07-24T10:55:06;17.60;99.90
20534;DHT22;12929;56.822;26.056;2023-07-24T10:57:34;17.60;99.90
20534;DHT22;12929;56.822;26.056;2023-07-24T11:00:01;17.60;99.90
20534;DHT22;12929;56.822;26.056;2023-07-24T11:02:29;17.60;99.90
20534;DHT22;12929;56.822;26.056;2023-07-24T11:04:59;17.50;99.90
20534;DHT22;12929;56.822;26.056;2023-07-24T11:07:32;17.50;99.90
20534;DHT22;12929;56.822;26.056;2023-07-24T11:10:00;17.60;99.90
20534;DHT22;12929;56.822;26.056;2023-07-24T11:12:27;17.60;99.90
20534;DHT22;12929;56.822;26.056;2023-07-24T11:14:58;17.50;99.90
20534;DHT22;12929;56.822;26.056;2023-07-24T11:17:37;17.40;99.90
20534;DHT22;12929;56.822;26.056;2023-07-24T11:20:10;17.20;99.90
20534;DHT22;12929;56.822;26.056;2023-07-24T11:22:43;17.10;99.90
20534;DHT22;12929;56.822;26.056;2023-07-24T11:25:11;17.00;99.90
20534;DHT22;12929;56.822;26.056;2023-07-24T11:27:41;17.00;99.90
20534;DHT22;12929;56.822;26.056;2023-07-24T11:30:11;16.90;99.90
20534;DHT22;12929;56.822;26.056;2023-07-24T11:32:40;16.90;99.90
20534;DHT22;12929;56.822;26.056;2023-07-24T11:35:08;16.90;99.90
20534;DHT22;12929;56.822;26.056;2023-07-24T11:37:37;16.80;99.90
20534;DHT22;12929;56.822;26.056;2023-07-24T11:40:06;16.80;99.90
20534;DHT22;12929;56.822;26.056;2023-07-24T11:42:43;16.70;99.90
20534;DHT22;12929;56.822;26.056;2023-07-24T11:45:11;16.80;99.90
20534;DHT22;12929;56.822;26.056;2023-07-24T11:47:50;16.80;99.90
20534;DHT22;12929;56.822;26.056;2023-07-24T11:50:23;16.80;99.90
20534;DHT22;12929;56.822;26.056;2023-07-24T11:52:52;16.70;99.90
20534;DHT22;12929;56.822;26.056;2023-07-24T11:55:32;16.70;99.90
20534;DHT22;12929;56.822;26.056;2023-07-24T11:58:01;16.70;99.90
20534;DHT22;12929;56.822;26.056;2023-07-24T12:00:33;16.70;99.90
20534;DHT22;12929;56.822;26.056;2023-07-24T12:03:04;16.70;99.90
20534;DHT22;12929;56.822;26.056;2023-07-24T12:05:40;16.60;99.90
20534;DHT22;12929;56.822;26.056;2023-07-24T12:08:09;16.60;99.90
20534;DHT22;12929;56.822;26.056;2023-07-24T12:10:39;16.60;99.90
20534;DHT22;12929;56.822;26.056;2023-07-24T12:13:08;16.50;99.90
20534;DHT22;12929;56.822;26.056;2023-07-24T12:15:36;16.50;99.90
20534;DHT22;12929;56.822;26.056;2023-07-24T12:18:05;16.20;99.90
20534;DHT22;12929;56.822;26.056;2023-07-24T12:20:34;16.20;99.90
20534;DHT22;12929;56.822;26.056;2023-07-24T12:23:02;16.20;99.90
20534;DHT22;12929;56.822;26.056;2023-07-24T12:25:31;16.20;99.90
20534;DHT22;12929;56.822;26.056;2023-07-24T12:27:58;16.20;99.90
20534;DHT22;12929;56.822;26.056;2023-07-24T12:30:26;16.20;99.90
20534;DHT22;12929;56.822;26.056;2023-07-24T12:32:54;16.20;99.90
20534;DHT22;12929;56.822;26.056;2023-07-24T12:35:23;16.10;99.90
20534;DHT22;12929;56.822;26.056;2023-07-24T12:37:50;16.20;99.90
20534;DHT22;12929;56.822;26.056;2023-07-24T12:40:22;16.20;99.90
20534;DHT22;12929;56.822;26.056;2023-07-24T12:42:57;16.20;99.90
20534;DHT22;12929;56.822;26.056;2023-07-24T12:45:32;16.10;99.90
20534;DHT22;12929;56.822;26.056;2023-07-24T12:48:00;16.00;99.90
20534;DHT22;12929;56.822;26.056;2023-07-24T12:50:28;16.00;99.90
20534;DHT22;12929;56.822;26.056;2023-07-24T12:52:57;15.80;99.90
20534;DHT22;12929;56.822;26.056;2023-07-24T12:55:28;15.80;99.90
20534;DHT22;12929;56.822;26.056;2023-07-24T12:57:57;15.90;99.90
20534;DHT22;12929;56.822;26.056;2023-07-24T13:00:24;16.00;99.90
20534;DHT22;12929;56.822;26.056;2023-07-24T13:02:52;15.90;99.90
20534;DHT22;12929;56.822;26.056;2023-07-24T13:05:20;15.70;99.90
20534;DHT22;12929;56.822;26.056;2023-07-24T13:07:48;15.90;99.90
20534;DHT22;12929;56.822;26.056;2023-07-24T13:10:16;16.00;99.90
20534;DHT22;12929;56.822;26.056;2023-07-24T13:12:43;15.90;99.90
20534;DHT22;12929;56.822;26.056;2023-07-24T13:15:22;15.90;99.90
20534;DHT22;12929;56.822;26.056;2023-07-24T13:17:51;16.00;99.90
20534;DHT22;12929;56.822;26.056;2023-07-24T13:20:19;16.00;99.90
20534;DHT22;12929;56.822;26.056;2023-07-24T13:22:47;15.80;99.90
20534;DHT22;12929;56.822;26.056;2023-07-24T13:25:18;15.80;99.90
20534;DHT22;12929;56.822;26.056;2023-07-24T13:27:45;15.90;99.90
20534;DHT22;12929;56.822;26.056;2023-07-24T13:30:13;16.00;99.90
20534;DHT22;12929;56.822;26.056;2023-07-24T13:32:41;16.00;99.90
20534;DHT22;12929;56.822;26.056;2023-07-24T13:35:09;16.00;99.90
20534;DHT22;12929;56.822;26.056;2023-07-24T13:37:37;16.00;99.90
20534;DHT22;12929;56.822;26.056;2023-07-24T13:40:09;16.10;99.90
20534;DHT22;12929;56.822;26.056;2023-07-24T13:42:41;16.00;99.90
20534;DHT22;12929;56.822;26.056;2023-07-24T13:45:12;15.90;99.90
20534;DHT22;12929;56.822;26.056;2023-07-24T13:47:40;15.80;99.90
20534;DHT22;12929;56.822;26.056;2023-07-24T13:50:08;15.70;99.90
20534;DHT22;12929;56.822;26.056;2023-07-24T13:52:36;15.70;99.90
20534;DHT22;12929;56.822;26.056;2023-07-24T13:55:04;15.70;99.90
20534;DHT22;12929;56.822;26.056;2023-07-24T13:57:32;15.80;99.90
20534;DHT22;12929;56.822;26.056;2023-07-24T14:00:00;15.90;99.90
20534;DHT22;12929;56.822;26.056;2023-07-24T14:02:37;15.90;99.90
20534;DHT22;12929;56.822;26.056;2023-07-24T14:05:06;16.00;99.90
20534;DHT22;12929;56.822;26.056;2023-07-24T14:07:34;16.00;99.90
20534;DHT22;12929;56.822;26.056;2023-07-24T14:10:01;16.00;99.90
20534;DHT22;12929;56.822;26.056;2023-07-24T14:12:29;16.10;99.90
20534;DHT22;12929;56.822;26.056;2023-07-24T14:14:57;16.00;99.90
20534;DHT22;12929;56.822;26.056;2023-07-24T14:17:24;16.00;99.90
20534;DHT22;12929;56.822;26.056;2023-07-24T14:19:52;16.00;99.90
20534;DHT22;12929;56.822;26.056;2023-07-24T14:22:20;16.00;99.90
20534;DHT22;12929;56.822;26.056;2023-07-24T14:24:48;16.10;99.90
20534;DHT22;12929;56.822;26.056;2023-07-24T14:27:16;16.10;99.90
20534;DHT22;12929;56.822;26.056;2023-07-24T14:29:44;16.00;99.90
20534;DHT22;12929;56.822;26.056;2023-07-24T14:32:11;16.00;99.90
20534;DHT22;12929;56.822;26.056;2023-07-24T14:34:39;15.90;99.90
20534;DHT22;12929;56.822;26.056;2023-07-24T14:37:10;16.00;99.90
20534;DHT22;12929;56.822;26.056;2023-07-24T14:39:40;16.00;99.90
20534;DHT22;12929;56.822;26.056;2023-07-24T14:42:10;16.00;99.90
20534;DHT22;12929;56.822;26.056;2023-07-24T14:44:43;16.00;99.90
20534;DHT22;12929;56.822;26.056;2023-07-24T14:47:13;16.00;99.90
20534;DHT22;12929;56.822;26.056;2023-07-24T14:49:44;15.90;99.90
20534;DHT22;12929;56.822;26.056;2023-07-24T14:52:17;15.90;99.90
20534;DHT22;12929;56.822;26.056;2023-07-24T14:54:47;16.00;99.90
20534;DHT22;12929;56.822;26.056;2023-07-24T14:57:16;16.00;99.90
20534;DHT22;12929;56.822;26.056;2023-07-24T14:59:53;15.90;99.90
20534;DHT22;12929;56.822;26.056;2023-07-24T15:02:22;15.80;99.90
20534;DHT22;12929;56.822;26.056;2023-07-24T15:04:51;15.90;99.90
20534;DHT22;12929;56.822;26.056;2023-07-24T15:07:20;15.80;99.90
20534;DHT22;12929;56.822;26.056;2023-07-24T15:09:50;15.70;99.90
20534;DHT22;12929;56.822;26.056;2023-07-24T15:12:18;15.70;99.90
20534;DHT22;12929;56.822;26.056;2023-07-24T15:14:47;15.70;99.90
20534;DHT22;12929;56.822;26.056;2023-07-24T15:17:18;15.70;99.90
20534;DHT22;12929;56.822;26.056;2023-07-24T15:19:48;15.70;99.90
20534;DHT22;12929;56.822;26.056;2023-07-24T15:22:19;15.70;99.90
20534;DHT22;12929;56.822;26.056;2023-07-24T15:24:52;15.70;99.90
20534;DHT22;12929;56.822;26.056;2023-07-24T15:27:22;15.70;99.90